Ponto Lake, Minnesota
Current Conditions -  °F | °C
As of 1:12 AM on Friday 31 Oct 2014 (Local Time) from KPWC Reporting Station
Broken Clouds Broken Clouds  
Wind Chill: 18°   Ceiling: 3700
Heat Index: 28°   Visibility: 10mi
Dew Point: 18°   Wind: 13mph
Humidity: 64%   Direction: 360°N
Pressure: 30.48"   Gusts: 21mph
Location:  46.6535°N, 94.5389°W
Report Text: KPWC 310612Z AUTO 36011G18KT 10SM BKN037 M02/M08 A3048 RMK AO2
Loading
Personal Weather Stations






























Interactive Weather Map
Tropical Storm Tracking
New forecast layout! Learn more

10-Day Weather Forecast

Advertisements
Track Severe Weather on mobile